METAR Data
IDs: Format: Raw Decoded Include TAF

Data at: 0309 UTC 25 Feb 2021

LIMF 250250Z AUTO 30003KT 9999 NCD 08/02 Q1033